Time;durP1;ratioP1;P1;durP2;ratioP2;P2;SDS_P1;SDS_P2;PMS_P1;PMS_P2;Temp;Humidity;BMP_temperature;BMP_pressure;BME280_temperature;BME280_humidity;BME280_pressure;Samples;Min_cycle;Max_cycle;Signal;HPM_P1;HPM_P2
2023/09/07 00:00:15;;;;;;;3.75;1.50;;;;;;;;;;5074632;28;20064;-59
2023/09/07 00:02:42;;;;;;;2.78;1.23;;;;;;;;;;5074764;28;20060;-59
2023/09/07 00:05:10;;;;;;;3.35;1.65;;;;;;;;;;5074433;28;20048;-60
2023/09/07 00:07:41;;;;;;;3.15;1.73;;;;;;;;;;5074511;28;20059;-59
2023/09/07 00:10:10;;;;;;;3.17;1.75;;;;;;;;;;5074771;28;20608;-60
2023/09/07 00:12:39;;;;;;;1.83;1.30;;;;;;;;;;5074637;28;20083;-60
2023/09/07 00:15:08;;;;;;;3.33;1.63;;;;;;;;;;5074476;28;20398;-59
2023/09/07 00:17:38;;;;;;;2.72;1.55;;;;;;;;;;5074344;28;20083;-59
2023/09/07 00:20:11;;;;;;;2.00;1.25;;;;;;;;;;5074577;28;20067;-59
2023/09/07 00:22:42;;;;;;;1.92;1.40;;;;;;;;;;5074445;28;20060;-60
2023/09/07 00:25:11;;;;;;;2.38;1.17;;;;;;;;;;5074366;28;20048;-60
2023/09/07 00:27:38;;;;;;;2.40;1.50;;;;;;;;;;5073477;28;20061;-60
2023/09/07 00:30:11;;;;;;;2.05;1.33;;;;;;;;;;5074273;28;20420;-60
2023/09/07 00:32:38;;;;;;;2.63;1.38;;;;;;;;;;5074168;28;20474;-60
2023/09/07 00:35:06;;;;;;;3.53;1.30;;;;;;;;;;5073579;28;20063;-60
2023/09/07 00:37:38;;;;;;;2.67;1.15;;;;;;;;;;5073962;28;20409;-60
2023/09/07 00:40:09;;;;;;;1.80;1.10;;;;;;;;;;5074160;28;20409;-59
2023/09/07 00:42:38;;;;;;;2.05;1.73;;;;;;;;;;5073713;28;20518;-60
2023/09/07 00:45:08;;;;;;;2.33;1.55;;;;;;;;;;5073816;28;20059;-59
2023/09/07 00:47:35;;;;;;;3.38;1.42;;;;;;;;;;5073957;28;20060;-59
2023/09/07 00:50:03;;;;;;;2.13;1.27;;;;;;;;;;5073719;28;20057;-59
2023/09/07 00:52:30;;;;;;;3.55;1.42;;;;;;;;;;5073731;28;20052;-60
2023/09/07 00:54:57;;;;;;;3.08;1.30;;;;;;;;;;5073439;28;20055;-59
2023/09/07 00:57:25;;;;;;;2.88;1.20;;;;;;;;;;5073883;28;20053;-60
2023/09/07 00:59:52;;;;;;;1.80;1.05;;;;;;;;;;5072593;28;20059;-59
2023/09/07 01:02:19;;;;;;;2.15;1.50;;;;;;;;;;5073324;28;20052;-60
2023/09/07 01:04:46;;;;;;;2.80;1.45;;;;;;;;;;5071196;28;20052;-60
2023/09/07 01:07:18;;;;;;;2.08;1.20;;;;;;;;;;5073295;28;20444;-60
2023/09/07 01:09:48;;;;;;;2.75;1.88;;;;;;;;;;5073137;28;20060;-60
2023/09/07 01:12:15;;;;;;;2.13;1.40;;;;;;;;;;5073333;28;20053;-60
2023/09/07 01:14:43;;;;;;;2.30;1.27;;;;;;;;;;5073312;28;20049;-60
2023/09/07 01:17:10;;;;;;;2.70;1.65;;;;;;;;;;5073480;28;20049;-60
2023/09/07 01:19:37;;;;;;;2.78;1.58;;;;;;;;;;5073112;28;20501;-61
2023/09/07 01:22:06;;;;;;;1.65;1.08;;;;;;;;;;5073186;28;20178;-60
2023/09/07 01:24:34;;;;;;;2.20;1.73;;;;;;;;;;5072999;28;20049;-60
2023/09/07 01:27:04;;;;;;;2.28;1.33;;;;;;;;;;5073238;28;20059;-60
2023/09/07 01:29:31;;;;;;;2.65;2.08;;;;;;;;;;5072972;28;20055;-60
2023/09/07 01:31:58;;;;;;;3.67;1.50;;;;;;;;;;5073174;28;20048;-60
2023/09/07 01:34:28;;;;;;;3.00;1.52;;;;;;;;;;5073087;28;20063;-59
2023/09/07 01:36:55;;;;;;;2.65;1.65;;;;;;;;;;5072465;28;20075;-60
2023/09/07 01:39:23;;;;;;;3.45;1.30;;;;;;;;;;5073021;28;20059;-60
2023/09/07 01:41:50;;;;;;;1.63;1.00;;;;;;;;;;5072649;28;20056;-60
2023/09/07 01:44:16;;;;;;;2.47;1.55;;;;;;;;;;5072945;28;20055;-60
2023/09/07 01:46:43;;;;;;;2.05;1.30;;;;;;;;;;5072881;28;20060;-60
2023/09/07 01:49:10;;;;;;;2.88;1.77;;;;;;;;;;5072580;28;20075;-60
2023/09/07 01:51:39;;;;;;;2.40;1.83;;;;;;;;;;5072621;28;20078;-60
2023/09/07 01:54:06;;;;;;;3.10;1.70;;;;;;;;;;5072917;28;20064;-60
2023/09/07 01:56:34;;;;;;;2.28;1.45;;;;;;;;;;5072566;28;20504;-60
2023/09/07 01:59:01;;;;;;;2.28;1.27;;;;;;;;;;5072581;28;20053;-60
2023/09/07 02:01:29;;;;;;;2.63;1.50;;;;;;;;;;5072523;28;20057;-60
2023/09/07 02:03:56;;;;;;;2.05;1.00;;;;;;;;;;5072717;28;20060;-60
2023/09/07 02:06:23;;;;;;;2.97;1.77;;;;;;;;;;5072727;28;20060;-60
2023/09/07 02:08:50;;;;;;;2.53;1.70;;;;;;;;;;5072437;28;20052;-60
2023/09/07 02:11:17;;;;;;;2.20;1.08;;;;;;;;;;5072380;28;20053;-60
2023/09/07 02:13:47;;;;;;;2.30;1.50;;;;;;;;;;5072889;28;20048;-60
2023/09/07 02:16:13;;;;;;;4.18;1.50;;;;;;;;;;5072084;28;20052;-60
2023/09/07 02:18:43;;;;;;;2.53;1.33;;;;;;;;;;5072217;28;20056;-60
2023/09/07 02:21:10;;;;;;;2.85;1.65;;;;;;;;;;5072341;28;20048;-60
2023/09/07 02:23:37;;;;;;;2.03;1.30;;;;;;;;;;5072774;28;20048;-60
2023/09/07 02:26:04;;;;;;;2.60;1.50;;;;;;;;;;5072626;28;20049;-59
2023/09/07 02:28:31;;;;;;;2.53;1.15;;;;;;;;;;5072748;28;20056;-60
2023/09/07 02:31:04;;;;;;;1.95;1.15;;;;;;;;;;5072181;28;20053;-60
2023/09/07 02:33:31;;;;;;;2.40;1.42;;;;;;;;;;5072665;28;20056;-60
2023/09/07 02:35:58;;;;;;;2.08;1.50;;;;;;;;;;5071983;28;20053;-60
2023/09/07 02:38:25;;;;;;;2.15;1.58;;;;;;;;;;5072543;28;20055;-60
2023/09/07 02:40:51;;;;;;;2.15;1.35;;;;;;;;;;5072475;28;20048;-60
2023/09/07 02:43:18;;;;;;;2.65;1.60;;;;;;;;;;5072429;28;20056;-60
2023/09/07 02:45:45;;;;;;;1.67;1.30;;;;;;;;;;5072437;28;20059;-60
2023/09/07 02:48:13;;;;;;;3.03;1.70;;;;;;;;;;5072391;28;20418;-60
2023/09/07 02:50:40;;;;;;;2.53;1.45;;;;;;;;;;5074443;28;20052;-59
2023/09/07 02:53:07;;;;;;;2.25;1.70;;;;;;;;;;5076326;28;20055;-60
2023/09/07 02:55:34;;;;;;;1.83;1.23;;;;;;;;;;5075817;28;20049;-60
2023/09/07 02:58:03;;;;;;;2.00;1.38;;;;;;;;;;5075817;28;20048;-60
2023/09/07 03:00:30;;;;;;;2.22;1.63;;;;;;;;;;5076025;28;20075;-59
2023/09/07 03:02:56;;;;;;;3.10;1.90;;;;;;;;;;5075996;28;20056;-60
2023/09/07 03:05:27;;;;;;;2.38;1.50;;;;;;;;;;5075532;28;20048;-60
2023/09/07 03:07:54;;;;;;;3.55;1.52;;;;;;;;;;5076064;28;20131;-60
2023/09/07 03:10:21;;;;;;;1.80;1.20;;;;;;;;;;5075593;28;20141;-60
2023/09/07 03:12:48;;;;;;;3.58;1.52;;;;;;;;;;5075881;28;20059;-60
2023/09/07 03:15:16;;;;;;;1.88;1.08;;;;;;;;;;5075677;28;20052;-60
2023/09/07 03:17:43;;;;;;;6.32;2.22;;;;;;;;;;5075674;28;20067;-60
2023/09/07 03:20:13;;;;;;;2.70;1.58;;;;;;;;;;5075462;28;20048;-60
2023/09/07 03:22:43;;;;;;;2.30;1.45;;;;;;;;;;5075379;28;20059;-60
2023/09/07 03:25:10;;;;;;;2.55;1.30;;;;;;;;;;5074890;28;20048;-60
2023/09/07 03:27:37;;;;;;;2.28;1.50;;;;;;;;;;5075637;28;20068;-60
2023/09/07 03:30:05;;;;;;;2.95;1.90;;;;;;;;;;5075516;28;20059;-59
2023/09/07 03:32:33;;;;;;;2.50;1.40;;;;;;;;;;5075334;28;20059;-60
2023/09/07 03:35:00;;;;;;;2.97;1.65;;;;;;;;;;5072472;28;20052;-60
2023/09/07 03:37:27;;;;;;;3.45;1.60;;;;;;;;;;5075265;28;20517;-60
2023/09/07 03:39:55;;;;;;;3.78;2.15;;;;;;;;;;5075333;28;20052;-60
2023/09/07 03:42:22;;;;;;;5.00;1.85;;;;;;;;;;5071514;28;20049;-60
2023/09/07 03:44:49;;;;;;;3.63;1.70;;;;;;;;;;5075198;28;20054;-60
2023/09/07 03:47:16;;;;;;;2.85;1.60;;;;;;;;;;5075183;28;20053;-60
2023/09/07 03:49:43;;;;;;;2.85;1.90;;;;;;;;;;5075123;28;20482;-60
2023/09/07 03:52:10;;;;;;;2.85;1.77;;;;;;;;;;5074849;28;20393;-59
2023/09/07 03:54:37;;;;;;;2.58;1.65;;;;;;;;;;5074771;28;20056;-60
2023/09/07 03:57:05;;;;;;;4.63;2.33;;;;;;;;;;5074695;28;20052;-60
2023/09/07 03:59:32;;;;;;;2.83;1.60;;;;;;;;;;5074934;28;20052;-60
2023/09/07 04:01:58;;;;;;;4.63;2.05;;;;;;;;;;5073588;28;20060;-63
2023/09/07 04:04:25;;;;;;;2.65;1.50;;;;;;;;;;5074566;28;20063;-60
2023/09/07 04:06:52;;;;;;;2.30;1.48;;;;;;;;;;5074349;28;20048;-59
2023/09/07 04:09:19;;;;;;;3.05;1.52;;;;;;;;;;5074470;28;20486;-60
2023/09/07 04:11:45;;;;;;;1.92;1.48;;;;;;;;;;5074666;28;20075;-59
2023/09/07 04:14:14;;;;;;;2.15;1.63;;;;;;;;;;5074462;28;20409;-60
2023/09/07 04:16:40;;;;;;;2.90;1.42;;;;;;;;;;5074160;28;20049;-60
2023/09/07 04:19:07;;;;;;;4.50;2.15;;;;;;;;;;5074339;28;20493;-60
2023/09/07 04:21:35;;;;;;;3.22;1.98;;;;;;;;;;5074422;28;20060;-60
2023/09/07 04:24:02;;;;;;;3.60;2.13;;;;;;;;;;5074497;28;20052;-60
2023/09/07 04:26:29;;;;;;;3.38;2.17;;;;;;;;;;5074344;28;20048;-59
2023/09/07 04:28:56;;;;;;;3.15;1.90;;;;;;;;;;5074438;28;20413;-60
2023/09/07 04:31:27;;;;;;;3.65;1.90;;;;;;;;;;5073863;28;20063;-60
2023/09/07 04:33:53;;;;;;;2.97;1.60;;;;;;;;;;5073905;28;20064;-61
2023/09/07 04:36:20;;;;;;;2.33;1.50;;;;;;;;;;5073784;28;20067;-60
2023/09/07 04:38:47;;;;;;;2.30;1.40;;;;;;;;;;5074317;28;20401;-60
2023/09/07 04:41:14;;;;;;;3.92;1.92;;;;;;;;;;5073955;28;20048;-59
2023/09/07 04:43:43;;;;;;;4.63;1.75;;;;;;;;;;5074172;28;20056;-60
2023/09/07 04:46:09;;;;;;;2.55;1.40;;;;;;;;;;5073932;28;20048;-58
2023/09/07 04:48:38;;;;;;;2.65;1.75;;;;;;;;;;5073658;28;20059;-61
2023/09/07 04:51:05;;;;;;;3.42;1.70;;;;;;;;;;5073905;28;20052;-59
2023/09/07 04:53:34;;;;;;;2.78;1.77;;;;;;;;;;5074031;28;20059;-60
2023/09/07 04:56:01;;;;;;;3.33;2.08;;;;;;;;;;5073449;28;20048;-60
2023/09/07 04:58:28;;;;;;;2.92;1.88;;;;;;;;;;5073800;28;20052;-60
2023/09/07 05:00:55;;;;;;;2.63;1.73;;;;;;;;;;5073397;28;20059;-60
2023/09/07 05:03:22;;;;;;;2.75;1.63;;;;;;;;;;5073725;28;20052;-59
2023/09/07 05:05:53;;;;;;;2.83;1.50;;;;;;;;;;5073341;28;20057;-60
2023/09/07 05:08:22;;;;;;;4.10;2.38;;;;;;;;;;5073497;28;20063;-60
2023/09/07 05:10:49;;;;;;;3.70;1.88;;;;;;;;;;5073071;28;20406;-60
2023/09/07 05:13:16;;;;;;;3.30;1.75;;;;;;;;;;5072980;28;20049;-60
2023/09/07 05:15:47;;;;;;;2.53;1.80;;;;;;;;;;5073073;28;20048;-59
2023/09/07 05:18:14;;;;;;;5.18;2.50;;;;;;;;;;5072831;28;20060;-59
2023/09/07 05:20:41;;;;;;;3.42;1.90;;;;;;;;;;5072677;28;20063;-59
2023/09/07 05:23:09;;;;;;;3.58;2.35;;;;;;;;;;5072810;28;20438;-59
2023/09/07 05:25:43;;;;;;;9.00;2.53;;;;;;;;;;5072497;28;20056;-60
2023/09/07 05:28:10;;;;;;;4.13;1.75;;;;;;;;;;5072506;28;20060;-59
2023/09/07 05:30:36;;;;;;;4.40;2.35;;;;;;;;;;5072641;28;20053;-59
2023/09/07 05:33:03;;;;;;;3.22;2.20;;;;;;;;;;5072661;28;20048;-60
2023/09/07 05:35:32;;;;;;;4.65;2.03;;;;;;;;;;5072337;28;20048;-62
2023/09/07 05:37:59;;;;;;;6.20;2.22;;;;;;;;;;5073079;28;20052;-60
2023/09/07 05:40:28;;;;;;;4.75;2.15;;;;;;;;;;5072705;28;20049;-64
2023/09/07 05:42:55;;;;;;;3.38;2.05;;;;;;;;;;5072944;28;20048;-60
2023/09/07 05:45:21;;;;;;;4.00;2.03;;;;;;;;;;5072669;28;20052;-60
2023/09/07 05:47:48;;;;;;;2.50;1.77;;;;;;;;;;5072786;28;20063;-60
2023/09/07 05:50:15;;;;;;;3.03;1.58;;;;;;;;;;5072589;28;20114;-60
2023/09/07 05:52:42;;;;;;;3.45;2.10;;;;;;;;;;5072618;28;20470;-60
2023/09/07 05:55:09;;;;;;;6.25;2.42;;;;;;;;;;5072370;28;20502;-59
2023/09/07 05:57:37;;;;;;;5.05;2.10;;;;;;;;;;5071760;28;20520;-59
2023/09/07 06:00:04;;;;;;;3.35;1.90;;;;;;;;;;5072029;28;20072;-59
2023/09/07 06:02:31;;;;;;;3.90;2.60;;;;;;;;;;5072303;28;20053;-59
2023/09/07 06:04:57;;;;;;;3.08;2.00;;;;;;;;;;5072402;28;20048;-59
2023/09/07 06:07:24;;;;;;;5.38;2.53;;;;;;;;;;5072217;28;20055;-59
2023/09/07 06:09:50;;;;;;;4.20;2.40;;;;;;;;;;5072305;28;20409;-59
2023/09/07 06:12:17;;;;;;;3.35;2.15;;;;;;;;;;5072297;28;20131;-59
2023/09/07 06:14:46;;;;;;;2.60;1.83;;;;;;;;;;5072287;28;20417;-59
2023/09/07 06:17:12;;;;;;;7.35;2.35;;;;;;;;;;5072600;28;20052;-59
2023/09/07 06:19:40;;;;;;;4.43;2.35;;;;;;;;;;5072108;28;20071;-60
2023/09/07 06:22:06;;;;;;;4.20;2.30;;;;;;;;;;5072438;28;20060;-59
2023/09/07 06:24:33;;;;;;;4.10;2.60;;;;;;;;;;5072701;28;20053;-59
2023/09/07 06:27:00;;;;;;;4.40;2.55;;;;;;;;;;5076611;28;20052;-59
2023/09/07 06:29:27;;;;;;;5.43;2.92;;;;;;;;;;5076659;28;20056;-59
2023/09/07 06:31:55;;;;;;;11.50;3.50;;;;;;;;;;5076428;28;20056;-60
2023/09/07 06:34:22;;;;;;;3.28;2.35;;;;;;;;;;5076345;28;20478;-60
2023/09/07 06:36:48;;;;;;;4.97;2.20;;;;;;;;;;5075528;28;20060;-60
2023/09/07 06:39:15;;;;;;;6.93;3.08;;;;;;;;;;5076389;28;20055;-60
2023/09/07 06:41:42;;;;;;;3.53;2.08;;;;;;;;;;5076142;28;20044;-59
2023/09/07 06:44:09;;;;;;;6.55;3.30;;;;;;;;;;5075935;28;20056;-59
2023/09/07 06:46:35;;;;;;;4.25;2.78;;;;;;;;;;5075830;28;20060;-59
2023/09/07 06:49:04;;;;;;;4.75;2.70;;;;;;;;;;5075949;28;20053;-59
2023/09/07 06:51:31;;;;;;;3.30;2.10;;;;;;;;;;5075669;28;20508;-59
2023/09/07 06:53:58;;;;;;;4.28;2.60;;;;;;;;;;5075884;28;20485;-59
2023/09/07 06:56:26;;;;;;;3.88;2.70;;;;;;;;;;5075967;28;20052;-58
2023/09/07 06:58:53;;;;;;;4.13;2.22;;;;;;;;;;5076027;28;20059;-59
2023/09/07 07:01:20;;;;;;;3.35;2.25;;;;;;;;;;5075925;28;20054;-59
2023/09/07 07:03:47;;;;;;;5.60;2.80;;;;;;;;;;5076170;28;20064;-59
2023/09/07 07:06:15;;;;;;;2.67;2.30;;;;;;;;;;5075663;28;20052;-57
2023/09/07 07:08:42;;;;;;;4.40;2.50;;;;;;;;;;5076029;28;20052;-60
2023/09/07 07:11:08;;;;;;;4.93;3.17;;;;;;;;;;5075546;28;20052;-58
2023/09/07 07:13:36;;;;;;;4.28;2.28;;;;;;;;;;5075972;28;20052;-59
2023/09/07 07:16:03;;;;;;;3.83;1.98;;;;;;;;;;5075368;28;20052;-59
2023/09/07 07:18:30;;;;;;;3.70;2.60;;;;;;;;;;5075607;28;20393;-59
2023/09/07 07:20:57;;;;;;;4.15;2.50;;;;;;;;;;5075327;28;20052;-60
2023/09/07 07:23:25;;;;;;;3.67;2.13;;;;;;;;;;5075710;28;20052;-60
2023/09/07 07:25:53;;;;;;;3.75;1.80;;;;;;;;;;5075293;28;20049;-60
2023/09/07 07:28:19;;;;;;;3.70;2.33;;;;;;;;;;5075534;28;20135;-60
2023/09/07 07:30:48;;;;;;;3.80;1.90;;;;;;;;;;5075340;28;20052;-60
2023/09/07 07:33:14;;;;;;;4.60;2.05;;;;;;;;;;5075425;28;20497;-60
2023/09/07 07:35:41;;;;;;;2.85;1.90;;;;;;;;;;5074810;28;20048;-60
2023/09/07 07:38:08;;;;;;;2.80;2.00;;;;;;;;;;5075365;28;20088;-60
2023/09/07 07:40:36;;;;;;;2.47;1.60;;;;;;;;;;5075082;28;20391;-61
2023/09/07 07:43:04;;;;;;;3.05;1.92;;;;;;;;;;5075217;28;20045;-61
2023/09/07 07:45:31;;;;;;;3.10;2.03;;;;;;;;;;5074646;28;20056;-61
2023/09/07 07:47:58;;;;;;;5.00;2.05;;;;;;;;;;5075172;28;20050;-60
2023/09/07 07:50:25;;;;;;;3.72;2.05;;;;;;;;;;5074808;28;20059;-61
2023/09/07 07:52:52;;;;;;;3.15;1.92;;;;;;;;;;5074859;28;20060;-61
2023/09/07 07:55:18;;;;;;;2.05;1.45;;;;;;;;;;5075035;28;20059;-62
2023/09/07 07:57:47;;;;;;;3.03;2.03;;;;;;;;;;5074969;28;20060;-61
2023/09/07 08:00:14;;;;;;;4.05;2.00;;;;;;;;;;5074566;28;20064;-61
2023/09/07 08:02:41;;;;;;;12.07;5.70;;;;;;;;;;5074484;28;20053;-61
2023/09/07 08:05:08;;;;;;;4.07;2.15;;;;;;;;;;5074830;28;20135;-61
2023/09/07 08:07:34;;;;;;;2.40;1.70;;;;;;;;;;5074588;28;20053;-61
2023/09/07 08:10:01;;;;;;;4.32;2.50;;;;;;;;;;5074520;28;20052;-61
2023/09/07 08:12:28;;;;;;;16.33;8.07;;;;;;;;;;5074626;28;20053;-61
2023/09/07 08:14:56;;;;;;;5.43;2.83;;;;;;;;;;5074398;28;20053;-62
2023/09/07 08:17:24;;;;;;;4.43;1.98;;;;;;;;;;5074528;28;20053;-61
2023/09/07 08:19:56;;;;;;;2.90;1.67;;;;;;;;;;5074155;28;20048;-61
2023/09/07 08:22:23;;;;;;;37.13;15.88;;;;;;;;;;5074593;28;20059;-62
2023/09/07 08:24:50;;;;;;;6.55;3.33;;;;;;;;;;5074344;28;20052;-61
2023/09/07 08:27:18;;;;;;;;;;;;;;;;;;5074731;28;20054;-61
2023/09/07 08:29:47;;;;;;;7.57;2.33;;;;;;;;;;5074558;28;19931;-61
2023/09/07 08:32:15;;;;;;;1.98;1.27;;;;;;;;;;5074018;28;20052;-61
2023/09/07 08:34:42;;;;;;;5.38;1.95;;;;;;;;;;5074032;28;20516;-62
2023/09/07 08:37:09;;;;;;;2.63;1.40;;;;;;;;;;5073830;28;20056;-62
2023/09/07 08:39:39;;;;;;;2.95;1.63;;;;;;;;;;5074231;28;20048;-62
2023/09/07 08:42:06;;;;;;;2.40;1.42;;;;;;;;;;5073629;28;20057;-62
2023/09/07 08:44:33;;;;;;;2.78;1.30;;;;;;;;;;5073518;28;20060;-62
2023/09/07 08:47:00;;;;;;;;;;;;;;;;;;5073596;28;20053;-62
2023/09/07 08:49:29;;;;;;;2.13;1.23;;;;;;;;;;5073502;28;19920;-62
2023/09/07 08:51:59;;;;;;;2.97;1.88;;;;;;;;;;5073505;28;20049;-61
2023/09/07 08:54:26;;;;;;;2.47;1.20;;;;;;;;;;5073420;28;20052;-62
2023/09/07 08:56:52;;;;;;;2.10;1.40;;;;;;;;;;5073690;28;20395;-62
2023/09/07 08:59:19;;;;;;;2.60;1.70;;;;;;;;;;5073505;28;20048;-62
2023/09/07 09:01:46;;;;;;;2.47;1.40;;;;;;;;;;5073452;28;20063;-62
2023/09/07 09:04:13;;;;;;;1.70;1.15;;;;;;;;;;5073691;28;20527;-62
2023/09/07 09:06:41;;;;;;;1.80;1.30;;;;;;;;;;5073083;28;20056;-62
2023/09/07 09:09:08;;;;;;;2.22;1.60;;;;;;;;;;5073605;28;20500;-63
2023/09/07 09:11:35;;;;;;;1.95;1.33;;;;;;;;;;5073036;28;20508;-60
2023/09/07 09:14:06;;;;;;;2.38;1.30;;;;;;;;;;5073081;28;20064;-60
2023/09/07 09:16:32;;;;;;;2.40;1.50;;;;;;;;;;5073107;28;20060;-62
2023/09/07 09:18:59;;;;;;;2.50;1.77;;;;;;;;;;5073038;28;20056;-62
2023/09/07 09:21:27;;;;;;;1.80;1.50;;;;;;;;;;5073206;28;20063;-60
2023/09/07 09:23:56;;;;;;;1.67;1.33;;;;;;;;;;5073157;28;20055;-60
2023/09/07 09:26:23;;;;;;;1.33;0.98;;;;;;;;;;5073225;28;20057;-61
2023/09/07 09:28:52;;;;;;;1.77;1.20;;;;;;;;;;5073017;28;20508;-61
2023/09/07 09:31:18;;;;;;;1.75;1.40;;;;;;;;;;5073054;28;20517;-61
2023/09/07 09:33:48;;;;;;;2.17;1.30;;;;;;;;;;5073152;28;20059;-61
2023/09/07 09:36:15;;;;;;;2.88;1.73;;;;;;;;;;5072534;28;20057;-61
2023/09/07 09:38:47;;;;;;;2.03;1.23;;;;;;;;;;5073241;28;20501;-62
2023/09/07 09:41:16;;;;;;;1.80;1.48;;;;;;;;;;5072673;28;20044;-61
2023/09/07 09:43:44;;;;;;;1.88;1.35;;;;;;;;;;5073226;28;20056;-61
2023/09/07 09:46:11;;;;;;;2.03;1.30;;;;;;;;;;5072932;28;20417;-61
2023/09/07 09:48:38;;;;;;;1.48;1.13;;;;;;;;;;5073150;28;20056;-61
2023/09/07 09:51:05;;;;;;;;;;;;;;;;;;5073464;28;20405;-61
2023/09/07 09:53:32;;;;;;;2.10;1.42;;;;;;;;;;5073174;28;19943;-61
2023/09/07 09:55:59;;;;;;;1.75;1.30;;;;;;;;;;5072743;28;20056;-62
2023/09/07 09:58:27;;;;;;;2.30;1.48;;;;;;;;;;5072622;28;20053;-61
2023/09/07 10:00:56;;;;;;;2.00;1.40;;;;;;;;;;5072268;28;20060;-61
2023/09/07 10:03:26;;;;;;;2.20;1.45;;;;;;;;;;5072282;28;20052;-61
2023/09/07 10:05:53;;;;;;;2.92;1.50;;;;;;;;;;5072459;28;20088;-61
2023/09/07 10:08:22;;;;;;;1.40;1.10;;;;;;;;;;5072527;28;20338;-61
2023/09/07 10:10:50;;;;;;;1.80;1.30;;;;;;;;;;5072635;28;20413;-61
2023/09/07 10:13:17;;;;;;;1.80;1.30;;;;;;;;;;5072479;28;20473;-61
2023/09/07 10:15:45;;;;;;;1.90;1.55;;;;;;;;;;5072180;28;20048;-61
2023/09/07 10:18:13;;;;;;;1.67;1.38;;;;;;;;;;5072177;28;20146;-61
2023/09/07 10:20:54;;;;;;;2.25;1.38;;;;;;;;;;5072451;28;20477;-61
2023/09/07 10:23:20;;;;;;;2.50;1.80;;;;;;;;;;5072545;28;20393;-61
2023/09/07 10:25:51;;;;;;;1.88;1.30;;;;;;;;;;5072160;28;20053;-61
2023/09/07 10:28:18;;;;;;;2.03;1.58;;;;;;;;;;5072589;28;20049;-61
2023/09/07 10:30:58;;;;;;;1.83;1.20;;;;;;;;;;5072220;28;20494;-61
2023/09/07 10:33:24;;;;;;;2.05;1.52;;;;;;;;;;5072867;28;20060;-61
2023/09/07 10:35:51;;;;;;;;;;;;;;;;;;5072590;28;20057;-61
2023/09/07 10:38:18;;;;;;;2.05;1.55;;;;;;;;;;5072652;28;19927;-61
2023/09/07 10:40:45;;;;;;;2.17;1.40;;;;;;;;;;5072245;28;20052;-61
2023/09/07 10:43:12;;;;;;;1.80;1.30;;;;;;;;;;5072506;28;20405;-61
2023/09/07 10:45:39;;;;;;;1.90;1.67;;;;;;;;;;5072292;28;20049;-61
2023/09/07 10:48:08;;;;;;;2.30;1.75;;;;;;;;;;5071889;28;20052;-61
2023/09/07 10:50:43;;;;;;;2.10;1.63;;;;;;;;;;5072233;28;20051;-61
2023/09/07 10:53:10;;;;;;;1.85;1.50;;;;;;;;;;5072197;28;20059;-62
2023/09/07 10:55:38;;;;;;;1.77;1.30;;;;;;;;;;5072018;28;20509;-61
2023/09/07 10:58:05;;;;;;;1.60;1.30;;;;;;;;;;5072009;28;20052;-61
2023/09/07 11:00:31;;;;;;;2.22;1.83;;;;;;;;;;5071818;28;20044;-62
2023/09/07 11:02:58;;;;;;;1.75;1.20;;;;;;;;;;5072122;28;20053;-61
2023/09/07 11:05:26;;;;;;;1.88;1.20;;;;;;;;;;5072058;28;20053;-61
2023/09/07 11:07:55;;;;;;;2.20;1.73;;;;;;;;;;5072252;28;20393;-61
2023/09/07 11:10:21;;;;;;;2.53;1.70;;;;;;;;;;5072498;28;20394;-61
2023/09/07 11:12:48;;;;;;;2.55;1.50;;;;;;;;;;5075928;28;20505;-61
2023/09/07 11:15:15;;;;;;;5.18;1.50;;;;;;;;;;5075716;28;20075;-61
2023/09/07 11:17:42;;;;;;;2.88;1.75;;;;;;;;;;5075298;28;20052;-60
2023/09/07 11:20:10;;;;;;;3.65;1.55;;;;;;;;;;5075702;28;20060;-60
2023/09/07 11:22:39;;;;;;;1.88;1.70;;;;;;;;;;5075268;28;20482;-61
2023/09/07 11:25:06;;;;;;;1.95;1.48;;;;;;;;;;5075112;28;20052;-60
2023/09/07 11:27:33;;;;;;;2.13;1.60;;;;;;;;;;5075076;28;20489;-60
2023/09/07 11:30:03;;;;;;;5.15;1.67;;;;;;;;;;5075436;28;20052;-61
2023/09/07 11:32:34;;;;;;;3.33;1.63;;;;;;;;;;5075178;28;20056;-60
2023/09/07 11:35:01;;;;;;;3.30;1.95;;;;;;;;;;5074475;28;20053;-60
2023/09/07 11:37:27;;;;;;;1.95;1.73;;;;;;;;;;5075100;28;20482;-61
2023/09/07 11:39:56;;;;;;;4.45;1.70;;;;;;;;;;5075006;28;20056;-61
2023/09/07 11:42:23;;;;;;;2.00;1.65;;;;;;;;;;5074781;28;20500;-60
2023/09/07 11:44:49;;;;;;;3.40;2.05;;;;;;;;;;5075053;28;20346;-61
2023/09/07 11:47:16;;;;;;;3.17;1.50;;;;;;;;;;5074740;28;20052;-60
2023/09/07 11:49:43;;;;;;;1.95;1.60;;;;;;;;;;5074705;28;20056;-62
2023/09/07 11:52:10;;;;;;;2.58;1.63;;;;;;;;;;5075065;28;20052;-61
2023/09/07 11:54:37;;;;;;;2.95;1.70;;;;;;;;;;5074937;28;20056;-61
2023/09/07 11:57:05;;;;;;;1.80;1.40;;;;;;;;;;5075023;28;20067;-62
2023/09/07 11:59:32;;;;;;;1.52;1.42;;;;;;;;;;5074921;28;20060;-62
2023/09/07 12:01:59;;;;;;;2.10;1.80;;;;;;;;;;5070515;28;20516;-62
2023/09/07 12:04:26;;;;;;;2.20;2.00;;;;;;;;;;5074933;28;20119;-62
2023/09/07 12:06:52;;;;;;;1.92;1.60;;;;;;;;;;5074675;28;20496;-62
2023/09/07 12:09:19;;;;;;;2.15;1.67;;;;;;;;;;5074696;28;20409;-62
2023/09/07 12:11:47;;;;;;;2.10;1.75;;;;;;;;;;5074593;28;20063;-62
2023/09/07 12:14:16;;;;;;;2.78;1.70;;;;;;;;;;5074740;28;20053;-62
2023/09/07 12:16:42;;;;;;;1.95;1.60;;;;;;;;;;5074359;28;20462;-62
2023/09/07 12:19:09;;;;;;;2.10;1.70;;;;;;;;;;5074634;28;20048;-62
2023/09/07 12:21:36;;;;;;;2.50;1.50;;;;;;;;;;5074455;28;20057;-62
2023/09/07 12:24:03;;;;;;;1.73;1.42;;;;;;;;;;5073453;28;20054;-62
2023/09/07 12:26:30;;;;;;;2.65;1.90;;;;;;;;;;5074255;28;20052;-62
2023/09/07 12:28:57;;;;;;;1.80;1.40;;;;;;;;;;5074251;28;20057;-62
2023/09/07 12:31:28;;;;;;;3.20;1.80;;;;;;;;;;5074092;28;20052;-61
2023/09/07 12:33:55;;;;;;;1.80;1.33;;;;;;;;;;5074107;28;20060;-62
2023/09/07 12:36:22;;;;;;;1.83;1.42;;;;;;;;;;5073515;28;20417;-62
2023/09/07 12:38:49;;;;;;;2.65;1.50;;;;;;;;;;5074472;28;20059;-62
2023/09/07 12:41:16;;;;;;;2.30;1.70;;;;;;;;;;5074170;28;20055;-62
2023/09/07 12:43:43;;;;;;;1.60;1.30;;;;;;;;;;5073771;28;20059;-62
2023/09/07 12:46:10;;;;;;;2.50;1.73;;;;;;;;;;5073683;28;20056;-62
2023/09/07 12:48:37;;;;;;;;;;;;;;;;;;5074512;28;20052;-62
2023/09/07 12:51:06;;;;;;;3.83;1.55;;;;;;;;;;5073996;28;19966;-62
2023/09/07 12:53:33;;;;;;;2.03;1.50;;;;;;;;;;5074076;28;20048;-62
2023/09/07 12:56:01;;;;;;;1.95;1.52;;;;;;;;;;5073805;28;20147;-62
2023/09/07 12:58:28;;;;;;;2.65;1.65;;;;;;;;;;5073869;28;20052;-62
2023/09/07 13:00:54;;;;;;;;;;;;;;;;;;5074155;28;20493;-62
2023/09/07 13:03:22;;;;;;;2.17;1.50;;;;;;;;;;5074086;28;19920;-61
2023/09/07 13:05:49;;;;;;;3.28;1.40;;;;;;;;;;5073473;28;20057;-61
2023/09/07 13:08:17;;;;;;;2.25;1.45;;;;;;;;;;5073585;28;20053;-62
2023/09/07 13:10:44;;;;;;;2.95;1.30;;;;;;;;;;5073376;28;20619;-62
2023/09/07 13:13:10;;;;;;;2.28;1.85;;;;;;;;;;5073601;28;20393;-61
2023/09/07 13:15:37;;;;;;;2.22;1.25;;;;;;;;;;5073453;28;20053;-62
2023/09/07 13:18:04;;;;;;;;;;;;;;;;;;5071732;28;20057;-62
2023/09/07 13:20:32;;;;;;;2.53;1.48;;;;;;;;;;5073111;28;20381;-61
2023/09/07 13:23:04;;;;;;;2.30;1.38;;;;;;;;;;5073365;28;20406;-61
2023/09/07 13:25:32;;;;;;;2.33;1.67;;;;;;;;;;5072935;28;20052;-62
2023/09/07 13:28:02;;;;;;;2.38;1.50;;;;;;;;;;5072832;28;20048;-61
2023/09/07 13:30:29;;;;;;;2.63;1.48;;;;;;;;;;5072869;28;20477;-62
2023/09/07 13:32:59;;;;;;;;;;;;;;;;;;5073532;28;20508;-61
2023/09/07 13:35:29;;;;;;;3.03;1.42;;;;;;;;;;5072206;28;20261;-61
2023/09/07 13:37:56;;;;;;;4.93;1.73;;;;;;;;;;5072785;28;20053;-62
2023/09/07 13:40:24;;;;;;;2.30;1.38;;;;;;;;;;5073014;28;20056;-61
2023/09/07 13:42:55;;;;;;;4.03;2.08;;;;;;;;;;5073009;28;20052;-61
2023/09/07 13:45:22;;;;;;;2.17;1.40;;;;;;;;;;5072800;28;20379;-61
2023/09/07 13:47:48;;;;;;;2.22;1.40;;;;;;;;;;5071546;28;20055;-60
2023/09/07 13:50:15;;;;;;;1.80;1.13;;;;;;;;;;5072633;28;20056;-61
2023/09/07 13:52:42;;;;;;;2.40;1.27;;;;;;;;;;5072707;28;20048;-61
2023/09/07 13:55:09;;;;;;;2.13;1.40;;;;;;;;;;5072425;28;20067;-61
2023/09/07 13:57:36;;;;;;;2.10;1.48;;;;;;;;;;5072560;28;20053;-61
2023/09/07 14:00:05;;;;;;;2.03;1.40;;;;;;;;;;5072484;28;20052;-61
2023/09/07 14:02:33;;;;;;;2.50;1.63;;;;;;;;;;5072560;28;20540;-61
2023/09/07 14:05:00;;;;;;;2.38;1.48;;;;;;;;;;5072433;28;20063;-61
2023/09/07 14:07:26;;;;;;;2.15;1.38;;;;;;;;;;5072585;28;20059;-61
2023/09/07 14:10:00;;;;;;;2.05;1.27;;;;;;;;;;5072211;28;20060;-61
2023/09/07 14:12:27;;;;;;;2.20;1.75;;;;;;;;;;5072003;28;20433;-61
2023/09/07 14:14:54;;;;;;;2.80;1.45;;;;;;;;;;5072139;28;20493;-61
2023/09/07 14:17:24;;;;;;;2.25;1.70;;;;;;;;;;5071990;28;20048;-61
2023/09/07 14:19:51;;;;;;;2.15;1.45;;;;;;;;;;5072388;28;20063;-60
2023/09/07 14:22:18;;;;;;;2.35;1.60;;;;;;;;;;5072244;28;20052;-60
2023/09/07 14:24:44;;;;;;;2.63;1.33;;;;;;;;;;5072179;28;20163;-61
2023/09/07 14:27:11;;;;;;;3.03;1.57;;;;;;;;;;5072104;28;20397;-61
2023/09/07 14:29:38;;;;;;;2.27;1.17;;;;;;;;;;5071985;28;20059;-61
2023/09/07 14:32:05;;;;;;;10.57;1.40;;;;;;;;;;5071715;28;20056;-61
2023/09/07 14:34:33;;;;;;;2.10;1.40;;;;;;;;;;5072295;28;20375;-61
2023/09/07 14:37:01;;;;;;;2.83;1.40;;;;;;;;;;5071278;28;20056;-61
2023/09/07 14:39:28;;;;;;;3.22;1.20;;;;;;;;;;5071887;28;20052;-60
2023/09/07 14:41:55;;;;;;;1.55;0.90;;;;;;;;;;5072058;28;20497;-60
2023/09/07 14:44:22;;;;;;;3.13;1.20;;;;;;;;;;5072098;28;20406;-60
2023/09/07 14:46:50;;;;;;;1.85;1.27;;;;;;;;;;5074336;28;20385;-60